createdAt,value
2019-03-21T00:02:05.100Z,16.85
2019-03-21T00:04:34.488Z,15.63
2019-03-21T00:07:04.130Z,17.45
2019-03-21T00:09:33.506Z,17.87
2019-03-21T00:12:11.674Z,17.42
2019-03-21T00:14:46.424Z,17.70
2019-03-21T00:17:35.522Z,16.87
2019-03-21T00:20:12.152Z,16.57
2019-03-21T00:22:41.530Z,17.82
2019-03-21T00:25:19.060Z,18.57
2019-03-21T00:27:48.429Z,18.70
2019-03-21T00:30:24.393Z,19.63
2019-03-21T00:32:55.813Z,19.42
2019-03-21T00:35:25.158Z,18.50
2019-03-21T00:37:54.525Z,20.08
2019-03-21T00:40:30.949Z,20.53
2019-03-21T00:43:04.331Z,20.75
2019-03-21T00:45:33.710Z,21.07
2019-03-21T00:48:05.955Z,20.97
2019-03-21T00:50:35.347Z,20.23
2019-03-21T00:53:05.017Z,20.12
2019-03-21T00:55:44.917Z,21.62
2019-03-21T00:58:14.289Z,21.75
2019-03-21T01:00:47.850Z,21.10
2019-03-21T01:03:17.574Z,19.20
2019-03-21T01:05:46.960Z,22.13
2019-03-21T01:08:16.312Z,22.05
2019-03-21T01:10:45.750Z,19.87
2019-03-21T01:13:15.192Z,20.10
2019-03-21T01:15:45.020Z,18.73
2019-03-21T01:18:14.408Z,21.20
2019-03-21T01:23:19.878Z,20.68
2019-03-21T01:25:56.976Z,21.12
2019-03-21T01:28:26.343Z,21.50
2019-03-21T01:30:55.725Z,21.15
2019-03-21T01:33:25.131Z,20.95
2019-03-21T01:35:54.541Z,21.75
2019-03-21T01:38:23.909Z,23.32
2019-03-21T01:40:57.880Z,24.12
2019-03-21T01:43:27.728Z,22.98
2019-03-21T01:45:57.114Z,24.27
2019-03-21T01:48:26.511Z,23.05
2019-03-21T01:50:55.892Z,23.85
2019-03-21T01:53:25.274Z,24.15
2019-03-21T01:55:54.672Z,23.40
2019-03-21T01:58:24.047Z,25.60
2019-03-21T02:00:58.206Z,24.30
2019-03-21T02:03:27.988Z,24.37
2019-03-21T02:05:57.369Z,23.42
2019-03-21T02:08:26.743Z,23.30
2019-03-21T02:10:56.146Z,24.05
2019-03-21T02:13:25.526Z,24.40
2019-03-21T02:15:55.726Z,22.95
2019-03-21T02:18:25.728Z,23.62
2019-03-21T02:20:55.107Z,22.70
2019-03-21T02:23:25.602Z,23.87
2019-03-21T02:25:55.027Z,25.32
2019-03-21T02:28:24.401Z,23.80
2019-03-21T02:30:54.565Z,23.25
2019-03-21T02:33:33.625Z,22.17
2019-03-21T02:36:06.810Z,22.27
2019-03-21T02:38:36.182Z,24.45
2019-03-21T02:41:17.296Z,23.20
2019-03-21T02:43:46.686Z,23.25
2019-03-21T02:46:18.712Z,22.77
2019-03-21T02:48:48.105Z,23.70
2019-03-21T02:51:17.476Z,22.05
2019-03-21T02:53:46.845Z,22.90
2019-03-21T02:56:22.009Z,22.58
2019-03-21T02:58:51.465Z,23.80
2019-03-21T03:01:20.859Z,22.58
2019-03-21T03:03:50.256Z,24.18
2019-03-21T03:06:19.629Z,23.57
2019-03-21T03:08:49.003Z,24.32
2019-03-21T03:11:22.650Z,24.55
2019-03-21T03:13:52.659Z,24.95
2019-03-21T03:16:24.217Z,24.40
2019-03-21T03:18:54.003Z,25.32
2019-03-21T03:21:23.703Z,25.25
2019-03-21T03:23:53.144Z,23.87
2019-03-21T03:26:22.492Z,23.60
2019-03-21T03:28:51.870Z,24.75
2019-03-21T03:31:21.255Z,23.77
2019-03-21T03:33:50.639Z,24.98
2019-03-21T03:36:20.031Z,23.35
2019-03-21T03:38:49.402Z,21.90
2019-03-21T03:41:23.355Z,24.05
2019-03-21T03:43:52.723Z,22.00
2019-03-21T03:46:22.117Z,24.02
2019-03-21T03:48:51.510Z,23.32
2019-03-21T03:51:20.897Z,22.67
2019-03-21T03:53:50.275Z,23.38
2019-03-21T03:56:19.747Z,23.67
2019-03-21T03:58:56.371Z,22.55
2019-03-21T04:01:26.058Z,22.50
2019-03-21T04:03:55.901Z,22.48
2019-03-21T04:06:25.278Z,23.77
2019-03-21T04:08:54.681Z,24.57
2019-03-21T04:11:24.348Z,22.27
2019-03-21T04:13:53.726Z,22.93
2019-03-21T04:16:23.179Z,23.45
2019-03-21T04:18:52.557Z,23.27
2019-03-21T04:21:21.999Z,23.15
2019-03-21T04:23:51.996Z,22.37
2019-03-21T04:26:36.524Z,21.75
2019-03-21T04:31:34.526Z,21.85
2019-03-21T04:34:08.522Z,22.73
2019-03-21T04:36:37.923Z,21.27
2019-03-21T04:39:10.401Z,21.48
2019-03-21T04:41:42.795Z,22.05
2019-03-21T04:44:12.912Z,22.73
2019-03-21T04:46:42.299Z,23.00
2019-03-21T04:49:11.666Z,23.50
2019-03-21T04:51:41.055Z,22.60
2019-03-21T04:54:10.429Z,22.80
2019-03-21T04:56:39.813Z,22.65
2019-03-21T04:59:09.500Z,21.90
2019-03-21T05:01:38.867Z,23.57
2019-03-21T05:04:08.258Z,23.73
2019-03-21T05:06:38.168Z,22.37
2019-03-21T05:09:10.951Z,22.22
2019-03-21T05:11:40.325Z,21.70
2019-03-21T05:14:09.713Z,24.35
2019-03-21T05:16:39.086Z,24.07
2019-03-21T05:19:08.549Z,23.18
2019-03-21T05:21:37.950Z,21.55
2019-03-21T05:24:09.220Z,23.30
2019-03-21T05:26:39.464Z,21.40
2019-03-21T05:29:08.835Z,24.10
2019-03-21T05:31:38.477Z,22.85
2019-03-21T05:34:08.109Z,24.65
2019-03-21T05:36:37.495Z,25.12
2019-03-21T05:39:10.634Z,25.60
2019-03-21T05:41:40.335Z,25.60
2019-03-21T05:44:35.566Z,25.17
2019-03-21T05:47:04.965Z,23.60
2019-03-21T05:49:34.344Z,24.47
2019-03-21T05:52:04.369Z,23.15
2019-03-21T05:54:33.766Z,21.75
2019-03-21T05:57:03.153Z,24.32
2019-03-21T05:59:32.549Z,25.00
2019-03-21T06:02:02.398Z,24.95
2019-03-21T06:04:31.789Z,23.75
2019-03-21T06:07:14.915Z,24.90
2019-03-21T06:09:44.288Z,23.95
2019-03-21T06:12:13.664Z,23.87
2019-03-21T06:14:56.640Z,23.10
2019-03-21T06:17:26.343Z,21.55
2019-03-21T06:20:09.698Z,21.57
2019-03-21T06:22:52.364Z,24.40
2019-03-21T06:25:53.484Z,23.80
2019-03-21T06:28:23.752Z,23.40
2019-03-21T06:30:53.128Z,24.72
2019-03-21T06:33:22.513Z,24.07
2019-03-21T06:35:51.901Z,23.90
2019-03-21T06:38:21.273Z,24.30
2019-03-21T06:40:51.007Z,24.15
2019-03-21T06:43:20.382Z,25.77
2019-03-21T06:45:49.768Z,21.12
2019-03-21T06:48:19.157Z,23.00
2019-03-21T06:50:48.529Z,22.10
2019-03-21T06:53:17.919Z,21.60
2019-03-21T06:55:47.314Z,21.05
2019-03-21T06:58:16.711Z,24.63
2019-03-21T07:00:46.115Z,21.90
2019-03-21T07:03:16.527Z,20.88
2019-03-21T07:05:46.149Z,20.65
2019-03-21T07:08:15.599Z,20.65
2019-03-21T07:10:44.986Z,22.37
2019-03-21T07:13:14.366Z,24.77
2019-03-21T07:15:43.803Z,20.82
2019-03-21T07:18:13.191Z,20.57
2019-03-21T07:20:42.565Z,19.73
2019-03-21T07:23:11.944Z,21.48
2019-03-21T07:25:41.535Z,21.30
2019-03-21T07:28:10.899Z,21.65
2019-03-21T07:30:41.399Z,21.23
2019-03-21T07:33:10.805Z,21.95
2019-03-21T07:35:40.183Z,21.70
2019-03-21T07:38:09.549Z,21.40
2019-03-21T07:40:38.957Z,21.62
2019-03-21T07:43:08.394Z,21.87
2019-03-21T07:45:37.732Z,21.70
2019-03-21T07:48:07.334Z,22.32
2019-03-21T07:50:36.709Z,22.10
2019-03-21T07:53:06.080Z,20.92
2019-03-21T07:55:35.473Z,22.07
2019-03-21T07:58:04.867Z,23.65
2019-03-21T08:00:34.581Z,23.02
2019-03-21T08:03:03.974Z,24.32
2019-03-21T08:05:40.170Z,24.15
2019-03-21T08:08:04.462Z,25.50
2019-03-21T08:10:34.119Z,24.40
2019-03-21T08:13:03.504Z,23.10
2019-03-21T08:15:32.879Z,22.10
2019-03-21T08:18:02.274Z,24.15
2019-03-21T08:20:31.650Z,22.98
2019-03-21T08:23:01.021Z,22.30
2019-03-21T08:25:30.418Z,23.55
2019-03-21T08:27:59.791Z,23.95
2019-03-21T08:30:35.770Z,22.25
2019-03-21T08:33:06.648Z,24.43
2019-03-21T08:35:36.038Z,23.83
2019-03-21T08:38:05.405Z,21.77
2019-03-21T08:40:34.810Z,23.27
2019-03-21T08:43:04.227Z,23.35
2019-03-21T08:45:33.596Z,23.52
2019-03-21T08:48:03.648Z,24.12
2019-03-21T08:50:33.064Z,24.05
2019-03-21T08:53:02.434Z,22.48
2019-03-21T08:55:32.569Z,22.62
2019-03-21T08:58:01.959Z,22.20
2019-03-21T09:00:34.333Z,19.12
2019-03-21T09:03:02.477Z,21.70
2019-03-21T09:05:31.851Z,20.72
2019-03-21T09:08:01.247Z,20.90
2019-03-21T09:10:30.644Z,20.05
2019-03-21T09:13:00.013Z,21.02
2019-03-21T09:15:29.391Z,18.85
2019-03-21T09:17:59.084Z,18.87
2019-03-21T09:20:28.462Z,17.45
2019-03-21T09:22:57.835Z,18.40
2019-03-21T09:25:27.225Z,18.80
2019-03-21T09:28:02.550Z,18.90
2019-03-21T09:30:27.707Z,19.12
2019-03-21T09:32:57.135Z,17.45
2019-03-21T09:35:27.237Z,17.27
2019-03-21T09:37:56.610Z,16.75
2019-03-21T09:40:26.445Z,16.97
2019-03-21T09:42:56.115Z,17.02
2019-03-21T09:45:25.486Z,16.77
2019-03-21T09:47:54.871Z,17.37
2019-03-21T09:50:28.418Z,16.70
2019-03-21T09:52:57.766Z,15.55
2019-03-21T09:55:27.763Z,16.67
2019-03-21T09:57:57.190Z,16.37
2019-03-21T10:00:37.286Z,17.20
2019-03-21T10:03:07.010Z,17.35
2019-03-21T10:05:36.390Z,17.10
2019-03-21T10:08:06.637Z,17.05
2019-03-21T10:10:36.006Z,18.05
2019-03-21T10:13:06.619Z,17.35
2019-03-21T10:15:36.616Z,18.00
2019-03-21T10:18:06.174Z,17.17
2019-03-21T10:20:35.529Z,16.30
2019-03-21T10:23:05.179Z,17.87
2019-03-21T10:25:34.574Z,17.17
2019-03-21T10:28:03.950Z,17.57
2019-03-21T10:30:42.872Z,21.00
2019-03-21T10:33:15.963Z,18.05
2019-03-21T10:35:45.347Z,18.30
2019-03-21T10:38:15.782Z,17.70
2019-03-21T10:40:45.156Z,17.27
2019-03-21T10:43:14.573Z,18.50
2019-03-21T10:45:44.323Z,19.25
2019-03-21T10:48:13.696Z,19.95
2019-03-21T10:50:43.072Z,21.48
2019-03-21T10:53:12.479Z,18.42
2019-03-21T10:55:42.120Z,17.52
2019-03-21T10:58:11.501Z,17.15
2019-03-21T11:00:40.953Z,17.48
2019-03-21T11:03:10.803Z,17.85
2019-03-21T11:05:40.169Z,16.97
2019-03-21T11:08:10.049Z,17.60
2019-03-21T11:10:39.414Z,17.60
2019-03-21T11:13:08.790Z,16.80
2019-03-21T11:15:38.175Z,18.12
2019-03-21T11:18:07.629Z,18.37
2019-03-21T11:20:39.107Z,18.45
2019-03-21T11:23:09.502Z,18.55
2019-03-21T11:25:38.939Z,18.77
2019-03-21T11:28:09.310Z,18.05
2019-03-21T11:30:42.092Z,17.98
2019-03-21T11:33:11.757Z,17.45
2019-03-21T11:35:41.273Z,17.40
2019-03-21T11:38:10.666Z,17.65
2019-03-21T11:40:41.205Z,16.82
2019-03-21T11:43:11.001Z,16.97
2019-03-21T11:45:40.395Z,17.02
2019-03-21T11:48:09.762Z,17.27
2019-03-21T11:50:39.134Z,17.82
2019-03-21T11:53:08.539Z,18.23
2019-03-21T11:55:37.910Z,17.15
2019-03-21T11:58:07.287Z,17.65
2019-03-21T12:00:44.078Z,17.42
2019-03-21T12:03:07.778Z,16.57
2019-03-21T12:05:37.156Z,17.80
2019-03-21T12:08:06.604Z,18.05
2019-03-21T12:10:35.984Z,17.98
2019-03-21T12:13:05.358Z,16.65
2019-03-21T12:15:35.600Z,17.77
2019-03-21T12:18:04.973Z,17.37
2019-03-21T12:20:34.849Z,17.57
2019-03-21T12:23:04.631Z,16.35
2019-03-21T12:25:34.041Z,15.25
2019-03-21T12:28:03.401Z,14.85
2019-03-21T12:30:36.628Z,15.20
2019-03-21T12:33:06.819Z,16.90
2019-03-21T12:35:36.522Z,17.50
2019-03-21T12:38:06.751Z,16.50
2019-03-21T12:40:36.193Z,19.10
2019-03-21T12:43:07.035Z,18.82
2019-03-21T12:45:36.417Z,18.00
2019-03-21T12:48:06.559Z,19.02
2019-03-21T12:50:36.332Z,20.08
2019-03-21T12:53:06.161Z,19.37
2019-03-21T12:55:35.555Z,18.87
2019-03-21T12:58:04.925Z,21.17
2019-03-21T13:00:40.029Z,21.02
2019-03-21T13:03:09.937Z,21.30
2019-03-21T13:05:39.310Z,20.97
2019-03-21T13:08:09.119Z,22.55
2019-03-21T13:10:38.638Z,22.42
2019-03-21T13:13:08.759Z,21.65
2019-03-21T13:15:38.147Z,20.72
2019-03-21T13:18:08.184Z,22.40
2019-03-21T13:20:37.832Z,22.15
2019-03-21T13:23:07.456Z,22.70
2019-03-21T13:25:36.841Z,21.97
2019-03-21T13:28:06.660Z,20.68
2019-03-21T13:30:36.748Z,21.90
2019-03-21T13:33:06.491Z,19.82
2019-03-21T13:35:35.883Z,23.05
2019-03-21T13:38:06.055Z,22.60
2019-03-21T13:40:35.445Z,21.68
2019-03-21T13:43:05.562Z,23.50
2019-03-21T13:45:35.965Z,23.30
2019-03-21T13:48:05.876Z,21.70
2019-03-21T13:50:35.254Z,22.05
2019-03-21T13:53:17.872Z,24.15
2019-03-21T13:55:36.452Z,22.58
2019-03-21T13:58:05.820Z,22.90
2019-03-21T14:00:35.212Z,22.55
2019-03-21T14:03:04.588Z,22.95
2019-03-21T14:05:33.962Z,22.13
2019-03-21T14:08:03.365Z,23.98
2019-03-21T14:10:32.744Z,23.40
2019-03-21T14:13:02.130Z,24.52
2019-03-21T14:15:32.098Z,23.27
2019-03-21T14:18:01.464Z,24.10
2019-03-21T14:20:30.845Z,23.62
2019-03-21T14:23:00.256Z,24.12
2019-03-21T14:25:29.649Z,22.82
2019-03-21T14:27:59.043Z,21.45
2019-03-21T14:30:28.487Z,22.63
2019-03-21T14:32:58.234Z,23.32
2019-03-21T14:35:27.618Z,24.30
2019-03-21T14:37:57.046Z,21.75
2019-03-21T14:40:26.437Z,22.73
2019-03-21T14:42:55.803Z,23.38
2019-03-21T14:45:25.195Z,23.53
2019-03-21T14:47:55.692Z,22.67
2019-03-21T14:50:25.271Z,23.77
2019-03-21T14:52:54.645Z,24.02
2019-03-21T14:55:24.014Z,27.83
2019-03-21T14:57:53.428Z,24.02
2019-03-21T15:00:23.092Z,23.67
2019-03-21T15:02:52.463Z,23.15
2019-03-21T15:05:21.848Z,23.43
2019-03-21T15:07:51.223Z,24.15
2019-03-21T15:10:21.843Z,21.87
2019-03-21T15:12:51.226Z,24.63
2019-03-21T15:15:20.650Z,22.70
2019-03-21T15:17:49.988Z,24.25
2019-03-21T15:20:19.465Z,22.60
2019-03-21T15:22:48.874Z,25.30
2019-03-21T15:25:18.249Z,23.83
2019-03-21T15:27:47.629Z,24.10
2019-03-21T15:30:21.638Z,23.13
2019-03-21T15:35:20.339Z,22.63
2019-03-21T15:37:49.813Z,22.37
2019-03-21T15:40:19.303Z,22.90
2019-03-21T15:42:48.674Z,23.00
2019-03-21T15:45:23.854Z,24.10
2019-03-21T15:47:50.632Z,23.32
2019-03-21T15:50:33.554Z,22.70
2019-03-21T15:53:03.000Z,21.55
2019-03-21T15:55:32.381Z,21.17
2019-03-21T15:58:01.768Z,22.40
2019-03-21T16:00:42.815Z,21.73
2019-03-21T16:03:14.118Z,22.73
2019-03-21T16:05:43.548Z,21.27
2019-03-21T16:08:12.857Z,22.27
2019-03-21T16:10:42.244Z,21.57
2019-03-21T16:13:11.622Z,21.07
2019-03-21T16:15:40.994Z,20.27
2019-03-21T16:18:10.434Z,20.40
2019-03-21T16:20:39.808Z,21.20
2019-03-21T16:23:09.184Z,21.20
2019-03-21T16:25:38.599Z,22.05
2019-03-21T16:28:07.979Z,20.50
2019-03-21T16:30:37.371Z,20.32
2019-03-21T16:33:06.758Z,20.43
2019-03-21T16:35:36.138Z,21.25
2019-03-21T16:38:05.529Z,20.88
2019-03-21T16:40:34.918Z,20.45
2019-03-21T16:43:05.769Z,20.72
2019-03-21T16:45:35.384Z,21.27
2019-03-21T16:48:08.952Z,20.40
2019-03-21T16:50:37.249Z,21.80
2019-03-21T16:53:07.735Z,20.75
2019-03-21T16:55:37.116Z,20.25
2019-03-21T16:58:06.493Z,21.55
2019-03-21T17:00:35.859Z,21.90
2019-03-21T17:03:05.614Z,22.50
2019-03-21T17:05:35.004Z,22.55
2019-03-21T17:08:11.313Z,22.30
2019-03-21T17:10:35.532Z,21.77
2019-03-21T17:13:06.318Z,20.82
2019-03-21T17:15:35.819Z,23.60
2019-03-21T17:18:05.228Z,23.30
2019-03-21T17:20:34.581Z,22.93
2019-03-21T17:23:05.008Z,23.05
2019-03-21T17:25:34.363Z,22.20
2019-03-21T17:28:03.737Z,21.75
2019-03-21T17:30:33.143Z,21.55
2019-03-21T17:33:02.546Z,22.15
2019-03-21T17:35:31.927Z,22.10
2019-03-21T17:38:01.294Z,23.18
2019-03-21T17:40:30.681Z,21.77
2019-03-21T17:43:00.055Z,22.32
2019-03-21T17:45:29.459Z,22.20
2019-03-21T17:47:58.805Z,20.20
2019-03-21T17:50:28.185Z,20.60
2019-03-21T17:52:57.572Z,22.35
2019-03-21T17:55:27.726Z,22.53
2019-03-21T17:57:57.111Z,22.82
2019-03-21T18:00:28.126Z,24.30
2019-03-21T18:02:57.743Z,24.55
2019-03-21T18:05:27.129Z,22.87
2019-03-21T18:07:56.485Z,22.05
2019-03-21T18:10:34.927Z,22.63
2019-03-21T18:13:05.205Z,23.12
2019-03-21T18:15:34.572Z,24.18
2019-03-21T18:18:04.180Z,24.32
2019-03-21T18:20:33.558Z,23.27
2019-03-21T18:23:02.915Z,23.52
2019-03-21T18:25:32.301Z,22.93
2019-03-21T18:28:01.677Z,24.10
2019-03-21T18:30:31.081Z,23.30
2019-03-21T18:33:00.444Z,23.20
2019-03-21T18:35:29.984Z,23.25
2019-03-21T18:37:59.362Z,23.60
2019-03-21T18:40:28.763Z,24.25
2019-03-21T18:42:58.139Z,23.77
2019-03-21T18:45:27.596Z,25.07
2019-03-21T18:47:56.976Z,23.40
2019-03-21T18:50:26.369Z,23.55
2019-03-21T18:52:55.914Z,24.35
2019-03-21T18:55:26.256Z,24.27
2019-03-21T18:57:57.004Z,25.05
2019-03-21T19:00:26.376Z,24.73
2019-03-21T19:02:55.781Z,25.65
2019-03-21T19:05:25.211Z,24.27
2019-03-21T19:07:54.607Z,24.05
2019-03-21T19:10:23.981Z,24.30
2019-03-21T19:12:53.358Z,25.80
2019-03-21T19:15:22.810Z,26.10
2019-03-21T19:17:52.228Z,24.02
2019-03-21T19:20:21.685Z,25.80
2019-03-21T19:22:51.347Z,26.30
2019-03-21T19:25:21.222Z,25.10
2019-03-21T19:27:50.661Z,24.57
2019-03-21T19:30:21.937Z,26.13
2019-03-21T19:32:51.399Z,25.85
2019-03-21T19:35:20.784Z,26.37
2019-03-21T19:37:50.154Z,25.75
2019-03-21T19:40:21.392Z,25.13
2019-03-21T19:42:50.828Z,26.10
2019-03-21T19:45:20.633Z,25.03
2019-03-21T19:47:50.021Z,26.05
2019-03-21T19:50:21.406Z,25.10
2019-03-21T19:52:50.777Z,25.70
2019-03-21T19:55:30.217Z,25.03
2019-03-21T19:57:51.264Z,26.05
2019-03-21T20:00:23.625Z,28.53
2019-03-21T20:02:53.680Z,25.48
2019-03-21T20:05:23.304Z,24.47
2019-03-21T20:07:52.672Z,26.02
2019-03-21T20:10:23.119Z,24.67
2019-03-21T20:12:52.489Z,25.60
2019-03-21T20:15:21.881Z,25.20
2019-03-21T20:17:51.262Z,26.05
2019-03-21T20:20:20.703Z,24.72
2019-03-21T20:22:50.083Z,25.32
2019-03-21T20:25:20.029Z,25.70
2019-03-21T20:27:49.417Z,26.82
2019-03-21T20:30:21.575Z,27.13
2019-03-21T20:32:50.948Z,26.25
2019-03-21T20:35:20.334Z,24.87
2019-03-21T20:37:49.711Z,25.92
2019-03-21T20:40:20.324Z,23.87
2019-03-21T20:42:49.681Z,24.40
2019-03-21T20:45:21.360Z,24.47
2019-03-21T20:47:51.058Z,23.38
2019-03-21T20:50:23.744Z,24.07
2019-03-21T20:52:53.120Z,24.27
2019-03-21T20:55:22.501Z,25.83
2019-03-21T20:57:51.882Z,25.05
2019-03-21T21:00:23.656Z,25.17
2019-03-21T21:02:55.052Z,24.95
2019-03-21T21:05:24.408Z,24.93
2019-03-21T21:07:53.853Z,25.10
2019-03-21T21:10:23.334Z,24.17
2019-03-21T21:12:52.702Z,25.45
2019-03-21T21:15:22.076Z,24.47
2019-03-21T21:17:51.490Z,23.92
2019-03-21T21:20:20.865Z,24.67
2019-03-21T21:22:50.312Z,25.10
2019-03-21T21:25:20.174Z,23.20
2019-03-21T21:27:50.340Z,25.17
2019-03-21T21:30:23.554Z,23.27
2019-03-21T21:32:52.942Z,24.32
2019-03-21T21:35:22.342Z,23.40
2019-03-21T21:37:51.707Z,24.00
2019-03-21T21:40:21.411Z,24.10
2019-03-21T21:42:50.880Z,22.73
2019-03-21T21:45:20.244Z,24.37
2019-03-21T21:47:49.628Z,22.58
2019-03-21T21:50:19.174Z,26.13
2019-03-21T21:52:50.080Z,25.15
2019-03-21T21:55:19.478Z,23.43
2019-03-21T21:57:48.877Z,25.55
2019-03-21T22:00:21.620Z,24.73
2019-03-21T22:02:51.569Z,23.57
2019-03-21T22:05:21.813Z,26.20
2019-03-21T22:07:51.188Z,25.50
2019-03-21T22:10:20.572Z,24.60
2019-03-21T22:12:50.031Z,24.82
2019-03-21T22:15:19.417Z,24.23
2019-03-21T22:17:48.788Z,24.77
2019-03-21T22:20:18.303Z,24.17
2019-03-21T22:22:47.675Z,24.92
2019-03-21T22:25:17.292Z,24.85
2019-03-21T22:27:46.717Z,24.12
2019-03-21T22:30:20.369Z,24.20
2019-03-21T22:32:49.713Z,23.62
2019-03-21T22:35:19.098Z,24.70
2019-03-21T22:37:48.476Z,24.82
2019-03-21T22:40:19.453Z,24.00
2019-03-21T22:42:48.847Z,29.50
2019-03-21T22:45:18.665Z,27.83
2019-03-21T22:47:50.252Z,25.55
2019-03-21T22:50:19.430Z,24.80
2019-03-21T22:52:48.804Z,24.92
2019-03-21T22:55:18.264Z,24.10
2019-03-21T22:57:47.630Z,23.85
2019-03-21T23:00:42.762Z,25.00
2019-03-21T23:03:12.769Z,26.60
2019-03-21T23:05:42.138Z,27.90
2019-03-21T23:08:12.416Z,27.87
2019-03-21T23:10:41.785Z,27.82
2019-03-21T23:13:11.442Z,26.30
2019-03-21T23:15:40.824Z,24.55
2019-03-21T23:18:10.217Z,25.57
2019-03-21T23:23:15.725Z,24.57
2019-03-21T23:25:45.100Z,26.70
2019-03-21T23:28:14.464Z,24.60
2019-03-21T23:30:43.862Z,25.12
2019-03-21T23:33:13.237Z,27.77
2019-03-21T23:35:42.609Z,27.53
2019-03-21T23:38:11.991Z,26.12
2019-03-21T23:40:41.360Z,25.85
2019-03-21T23:43:10.807Z,24.72
2019-03-21T23:45:40.270Z,26.23
2019-03-21T23:48:09.650Z,26.12
2019-03-21T23:50:39.037Z,26.25
2019-03-21T23:53:08.423Z,25.30
2019-03-21T23:55:37.799Z,25.70
2019-03-21T23:58:07.174Z,27.50
